Pagrindinis puslapis
METAR-TAF:

METAR-TAF

Oro uostai :

Cayman Brac, Kaimanų salos

platuma: 19-41-13N, ilguma: 079-52-58W, Aukštis: 2 m

Dabartinis oras

Ataskaita buvo paskelbta 1 valandą ir 4 minutes, ne 12:00 UTC
Vėjas 5 kt iš Rytų/Šiaurės Rytų, svyruoja nuo Šiaurės Rytų ir Rytų
Temperatūra 25°C
Drėgmė 69%
Slėgis 1016 hPa
Matomumas 10 km arba daugiau
Mažai debesys ne aukštis 1600 ft
Išsisklaidę debesys ne aukštis 3000 ft

METAR: MWCB 211200Z 06005KT 040V100 9999 FEW016 SCT030 25/19 Q1016

Laikas: 08:04 (13:04 UTC)

Prognozė

Ataskaita buvo paskelbta 20 valandos ir 4 minutes, ne 17:00 UTC
Prognozė galioja nuo 20 metu 18 UTC su 21 metu 18 UTC
Vėjas 13 kt iš Šiaurės Rytų
Matomumas 10 km arba daugiau
Mažai debesys ne aukštis 2000 ft
Tikimybė 30% :
Laikinai
nuo 20 metu 18 UTC su 20 metu 24 UTC
Matomumas: 9000 m
Su prošvaistėmis ne aukštis 1600 ft
lietus

TAF: MWCB 201700Z 2018/2118 05013KT 9999 FEW020 PROB30 TEMPO 2018/2024 9000 SHRA BKN016

Orai ataskaitas ir orų prognozės (METAR, TAF).

turimą stotys yra geltonos ir raudonos taškus žemėlapyje.

Perkelti pele per norėdami pamatyti stoties vardą.

Tada spustelėkite, norėdami matyti oro stebėjimo ir prognozės.

Norėdami pakeisti žemėlapį: spustelėkite ant žalios mygtukų su juodo kryžiaus žemyn,; žalią mygtuką su brūkšneliu, jei norite nutolinti; arba žalių rodyklių gretimoms žemėlapius.


METAR-TAF: